createdAt,value
2023-02-23T00:00:50.136Z,0.00
2023-02-23T00:01:50.130Z,0.00
2023-02-23T00:02:50.194Z,0.00
2023-02-23T00:03:50.123Z,0.00
2023-02-23T00:04:50.080Z,0.00
2023-02-23T00:05:50.057Z,0.00
2023-02-23T00:06:50.251Z,0.00
2023-02-23T00:07:50.049Z,0.00
2023-02-23T00:08:50.029Z,0.00
2023-02-23T00:09:50.010Z,0.00
2023-02-23T00:10:50.010Z,0.00
2023-02-23T00:11:49.989Z,0.00
2023-02-23T00:12:50.009Z,0.00
2023-02-23T00:13:49.964Z,0.00
2023-02-23T00:14:49.961Z,0.00
2023-02-23T00:15:49.948Z,0.00
2023-02-23T00:16:49.988Z,0.00
2023-02-23T00:17:49.942Z,0.00
2023-02-23T00:18:49.980Z,0.00
2023-02-23T00:19:49.894Z,0.00
2023-02-23T00:20:49.895Z,0.00
2023-02-23T00:21:49.869Z,0.00
2023-02-23T00:22:50.270Z,0.00
2023-02-23T00:23:49.861Z,0.00
2023-02-23T00:24:49.870Z,0.00
2023-02-23T00:25:49.834Z,0.00
2023-02-23T00:26:49.821Z,0.00
2023-02-23T00:27:49.828Z,0.00
2023-02-23T00:28:49.819Z,0.00
2023-02-23T00:29:49.917Z,0.00
2023-02-23T00:30:49.791Z,0.00
2023-02-23T00:31:49.905Z,0.00
2023-02-23T00:32:49.765Z,0.00
2023-02-23T00:33:49.749Z,0.00
2023-02-23T00:34:49.763Z,0.00
2023-02-23T00:35:49.725Z,0.00
2023-02-23T00:36:49.715Z,0.00
2023-02-23T00:37:49.694Z,0.00
2023-02-23T00:38:49.698Z,0.00
2023-02-23T00:39:49.696Z,0.00
2023-02-23T00:40:49.674Z,0.00
2023-02-23T00:41:49.668Z,0.00
2023-02-23T00:42:49.673Z,0.00
2023-02-23T00:43:49.635Z,0.00
2023-02-23T00:44:49.639Z,0.00
2023-02-23T00:45:49.648Z,0.00
2023-02-23T00:46:49.603Z,0.00
2023-02-23T00:47:49.579Z,0.00
2023-02-23T00:48:49.588Z,0.00
2023-02-23T00:49:49.597Z,0.00
2023-02-23T00:50:49.556Z,0.00
2023-02-23T00:51:49.599Z,0.00
2023-02-23T00:52:49.541Z,0.00
2023-02-23T00:53:49.558Z,0.00
2023-02-23T00:54:49.541Z,0.00
2023-02-23T00:55:49.517Z,0.00
2023-02-23T00:56:49.504Z,0.00
2023-02-23T00:57:49.469Z,0.00
2023-02-23T00:58:49.471Z,0.00
2023-02-23T00:59:49.469Z,0.00
2023-02-23T01:00:49.445Z,0.00
2023-02-23T01:01:49.487Z,0.00
2023-02-23T01:02:49.423Z,0.00
2023-02-23T01:03:49.425Z,0.00
2023-02-23T01:04:49.451Z,0.00
2023-02-23T01:05:49.387Z,0.00
2023-02-23T01:06:49.387Z,0.00
2023-02-23T01:07:49.387Z,0.00
2023-02-23T01:08:49.425Z,0.00
2023-02-23T01:09:49.345Z,0.00
2023-02-23T01:10:49.344Z,0.00
2023-02-23T01:11:49.320Z,0.00
2023-02-23T01:12:49.304Z,0.00
2023-02-23T01:13:49.311Z,0.00
2023-02-23T01:14:49.276Z,0.00
2023-02-23T01:15:49.314Z,0.00
2023-02-23T01:16:49.281Z,0.00
2023-02-23T01:17:49.246Z,0.00
2023-02-23T01:18:49.226Z,0.00
2023-02-23T01:19:49.228Z,0.00
2023-02-23T01:20:49.213Z,0.00
2023-02-23T01:21:49.204Z,0.00
2023-02-23T01:22:49.220Z,0.00
2023-02-23T01:23:49.188Z,0.00
2023-02-23T01:24:49.164Z,0.00
2023-02-23T01:25:49.150Z,0.00
2023-02-23T01:26:49.162Z,0.00
2023-02-23T01:27:49.135Z,0.00
2023-02-23T01:28:49.131Z,0.00
2023-02-23T01:29:49.113Z,0.00
2023-02-23T01:30:49.244Z,0.00
2023-02-23T01:31:49.257Z,0.00
2023-02-23T01:32:49.093Z,0.00
2023-02-23T01:33:49.073Z,0.00
2023-02-23T01:34:49.076Z,0.00
2023-02-23T01:35:49.041Z,0.00
2023-02-23T01:36:49.021Z,0.00
2023-02-23T01:37:49.051Z,0.00
2023-02-23T01:38:49.019Z,0.00
2023-02-23T01:39:49.001Z,0.00
2023-02-23T01:40:49.027Z,0.00
2023-02-23T01:41:48.986Z,0.00
2023-02-23T01:42:48.979Z,0.00
2023-02-23T01:43:48.952Z,0.00
2023-02-23T01:44:48.935Z,0.00
2023-02-23T01:45:48.967Z,0.00
2023-02-23T01:46:48.955Z,0.00
2023-02-23T01:47:48.914Z,0.00
2023-02-23T01:48:49.175Z,0.00
2023-02-23T01:49:48.895Z,0.00
2023-02-23T01:50:48.913Z,0.00
2023-02-23T01:51:48.875Z,0.00
2023-02-23T01:52:48.874Z,0.00
2023-02-23T01:53:48.835Z,0.00
2023-02-23T01:54:48.835Z,0.00
2023-02-23T01:55:48.835Z,0.00
2023-02-23T01:56:48.794Z,0.00
2023-02-23T01:57:48.815Z,0.00
2023-02-23T01:58:48.774Z,0.00
2023-02-23T01:59:48.784Z,0.00
2023-02-23T02:00:48.742Z,0.00
2023-02-23T02:01:48.777Z,0.00
2023-02-23T02:02:48.730Z,0.00
2023-02-23T02:03:48.775Z,0.00
2023-02-23T02:04:48.713Z,0.00
2023-02-23T02:05:48.705Z,0.00
2023-02-23T02:06:48.683Z,0.00
2023-02-23T02:07:48.693Z,0.00
2023-02-23T02:08:48.673Z,0.00
2023-02-23T02:09:48.724Z,0.00
2023-02-23T02:10:48.647Z,0.00
2023-02-23T02:11:48.652Z,0.00
2023-02-23T02:12:48.635Z,0.00
2023-02-23T02:13:48.624Z,0.00
2023-02-23T02:14:48.600Z,0.00
2023-02-23T02:15:48.617Z,0.00
2023-02-23T02:16:48.577Z,0.00
2023-02-23T02:17:48.599Z,0.00
2023-02-23T02:18:48.581Z,0.00
2023-02-23T02:19:48.547Z,0.00
2023-02-23T02:20:48.564Z,0.00
2023-02-23T02:21:48.547Z,0.00
2023-02-23T02:22:48.555Z,0.00
2023-02-23T02:23:48.509Z,0.00
2023-02-23T02:24:48.629Z,0.00
2023-02-23T02:25:48.565Z,0.00
2023-02-23T02:26:48.476Z,0.00
2023-02-23T02:27:48.738Z,0.00
2023-02-23T02:28:49.061Z,0.00
2023-02-23T02:29:48.446Z,0.00
2023-02-23T02:30:48.457Z,0.00
2023-02-23T02:31:48.506Z,0.00
2023-02-23T02:32:48.404Z,0.00
2023-02-23T02:33:48.386Z,0.00
2023-02-23T02:34:48.373Z,0.00
2023-02-23T02:35:48.372Z,0.00
2023-02-23T02:36:48.357Z,0.00
2023-02-23T02:37:48.403Z,0.00
2023-02-23T02:38:48.320Z,0.00
2023-02-23T02:39:48.316Z,0.00
2023-02-23T02:40:48.349Z,0.00
2023-02-23T02:41:48.297Z,0.00
2023-02-23T02:42:48.297Z,0.00
2023-02-23T02:43:48.284Z,0.00
2023-02-23T02:44:48.260Z,0.00
2023-02-23T02:45:48.310Z,0.00
2023-02-23T02:46:48.268Z,0.00
2023-02-23T02:47:48.230Z,0.00
2023-02-23T02:48:48.211Z,0.00
2023-02-23T02:49:48.222Z,0.00
2023-02-23T02:50:48.191Z,0.00
2023-02-23T02:51:49.031Z,0.00
2023-02-23T02:52:48.179Z,0.00
2023-02-23T02:53:48.167Z,0.00
2023-02-23T02:54:48.148Z,0.00
2023-02-23T02:55:48.163Z,0.00
2023-02-23T02:56:48.130Z,0.00
2023-02-23T02:57:48.173Z,0.00
2023-02-23T02:58:48.093Z,0.00
2023-02-23T02:59:48.101Z,0.00
2023-02-23T03:00:48.082Z,0.00
2023-02-23T03:01:48.089Z,0.00
2023-02-23T03:02:48.097Z,0.00
2023-02-23T03:03:48.061Z,0.00
2023-02-23T03:04:48.072Z,0.00
2023-02-23T03:05:48.022Z,0.00
2023-02-23T03:06:48.108Z,0.00
2023-02-23T03:07:48.048Z,0.00
2023-02-23T03:08:48.014Z,0.00
2023-02-23T03:09:48.022Z,0.00
2023-02-23T03:10:47.991Z,0.00
2023-02-23T03:11:50.033Z,0.00
2023-02-23T03:12:48.002Z,0.00
2023-02-23T03:13:48.056Z,0.00
2023-02-23T03:14:48.075Z,0.00
2023-02-23T03:15:48.084Z,0.00
2023-02-23T03:16:48.055Z,0.00
2023-02-23T03:17:48.050Z,0.00
2023-02-23T03:18:48.052Z,0.00
2023-02-23T03:19:48.158Z,0.00
2023-02-23T03:20:48.084Z,0.00
2023-02-23T03:21:48.083Z,0.00
2023-02-23T03:22:48.126Z,0.00
2023-02-23T03:23:48.128Z,0.00
2023-02-23T03:24:47.869Z,0.00
2023-02-23T03:25:48.571Z,0.00
2023-02-23T03:26:47.783Z,0.00
2023-02-23T03:27:47.776Z,0.00
2023-02-23T03:28:47.783Z,0.00
2023-02-23T03:29:47.766Z,0.00
2023-02-23T03:30:47.775Z,0.00
2023-02-23T03:31:47.793Z,0.00
2023-02-23T03:32:47.706Z,0.00
2023-02-23T03:33:47.729Z,0.00
2023-02-23T03:34:47.706Z,0.00
2023-02-23T03:35:47.686Z,0.00
2023-02-23T03:36:47.700Z,0.00
2023-02-23T03:37:47.677Z,0.00
2023-02-23T03:38:47.664Z,0.00
2023-02-23T03:39:47.652Z,0.00
2023-02-23T03:40:47.627Z,0.00
2023-02-23T03:41:47.624Z,0.00
2023-02-23T03:42:47.594Z,0.00
2023-02-23T03:43:47.599Z,0.00
2023-02-23T03:44:47.858Z,0.00
2023-02-23T03:45:47.656Z,0.00
2023-02-23T03:46:47.556Z,0.00
2023-02-23T03:47:47.560Z,0.00
2023-02-23T03:48:47.524Z,0.00
2023-02-23T03:49:47.554Z,0.00
2023-02-23T03:50:47.512Z,0.00
2023-02-23T03:51:47.512Z,0.00
2023-02-23T03:52:47.498Z,0.00
2023-02-23T03:53:47.493Z,0.00
2023-02-23T03:54:47.464Z,0.00
2023-02-23T03:55:47.474Z,0.00
2023-02-23T03:56:47.445Z,0.00
2023-02-23T03:57:47.443Z,0.00
2023-02-23T03:58:47.417Z,0.00
2023-02-23T03:59:47.446Z,0.00
2023-02-23T04:00:47.414Z,0.00
2023-02-23T04:01:47.402Z,0.00
2023-02-23T04:02:47.366Z,0.00
2023-02-23T04:03:47.371Z,0.00
2023-02-23T04:04:47.353Z,0.00
2023-02-23T04:05:47.341Z,0.00
2023-02-23T04:06:47.345Z,0.00
2023-02-23T04:07:47.325Z,0.00
2023-02-23T04:08:47.316Z,0.00
2023-02-23T04:09:47.320Z,0.00
2023-02-23T04:10:47.296Z,0.00
2023-02-23T04:11:47.293Z,0.00
2023-02-23T04:12:47.266Z,0.00
2023-02-23T04:13:47.303Z,0.00
2023-02-23T04:14:47.265Z,0.00
2023-02-23T04:15:47.264Z,0.00
2023-02-23T04:16:47.282Z,0.00
2023-02-23T04:17:47.273Z,0.00
2023-02-23T04:18:47.212Z,0.00
2023-02-23T04:19:47.213Z,0.00
2023-02-23T04:20:47.174Z,0.00
2023-02-23T04:21:47.173Z,0.00
2023-02-23T04:22:47.147Z,0.00
2023-02-23T04:23:47.180Z,0.00
2023-02-23T04:24:47.140Z,0.00
2023-02-23T04:25:47.132Z,0.00
2023-02-23T04:26:47.110Z,0.00
2023-02-23T04:27:47.096Z,0.00
2023-02-23T04:28:47.087Z,0.00
2023-02-23T04:29:47.087Z,0.00
2023-02-23T04:30:47.120Z,0.00
2023-02-23T04:31:47.121Z,0.00
2023-02-23T04:32:47.107Z,0.00
2023-02-23T04:33:47.040Z,0.00
2023-02-23T04:34:47.035Z,0.00
2023-02-23T04:35:47.156Z,0.00
2023-02-23T04:36:47.028Z,0.00
2023-02-23T04:37:48.425Z,0.00
2023-02-23T04:38:46.968Z,0.00
2023-02-23T04:39:46.959Z,0.00
2023-02-23T04:40:46.959Z,0.00
2023-02-23T04:41:46.952Z,0.00
2023-02-23T04:42:46.915Z,0.00
2023-02-23T04:43:46.982Z,0.00
2023-02-23T04:44:46.904Z,0.00
2023-02-23T04:45:46.959Z,0.00
2023-02-23T04:46:46.888Z,0.00
2023-02-23T04:47:46.897Z,0.00
2023-02-23T04:48:46.853Z,0.00
2023-02-23T04:49:46.853Z,0.00
2023-02-23T04:50:46.828Z,0.00
2023-02-23T04:51:46.874Z,0.00
2023-02-23T04:52:46.813Z,0.00
2023-02-23T04:53:46.832Z,0.00
2023-02-23T04:54:46.783Z,0.00
2023-02-23T04:55:47.442Z,0.00
2023-02-23T04:56:46.758Z,0.00
2023-02-23T04:57:46.769Z,0.00
2023-02-23T04:58:46.738Z,0.00
2023-02-23T04:59:46.741Z,0.00
2023-02-23T05:00:46.712Z,0.00
2023-02-23T05:01:46.779Z,0.00
2023-02-23T05:02:47.102Z,0.00
2023-02-23T05:03:46.690Z,0.00
2023-02-23T05:04:46.702Z,0.00
2023-02-23T05:05:46.686Z,0.00
2023-02-23T05:06:46.679Z,0.00
2023-02-23T05:07:46.650Z,0.00
2023-02-23T05:08:46.632Z,0.00
2023-02-23T05:09:46.618Z,0.00
2023-02-23T05:10:46.659Z,0.00
2023-02-23T05:11:46.626Z,0.00
2023-02-23T05:12:46.711Z,0.00
2023-02-23T05:13:46.630Z,0.00
2023-02-23T05:14:46.578Z,0.00
2023-02-23T05:15:46.567Z,0.00
2023-02-23T05:16:46.555Z,0.00
2023-02-23T05:17:46.534Z,0.00
2023-02-23T05:18:46.638Z,0.00
2023-02-23T05:19:46.579Z,0.00
2023-02-23T05:20:46.527Z,0.00
2023-02-23T05:21:46.538Z,0.00
2023-02-23T05:22:46.530Z,0.00
2023-02-23T05:23:46.459Z,0.00
2023-02-23T05:24:46.454Z,0.00
2023-02-23T05:25:46.459Z,0.00
2023-02-23T05:26:46.534Z,0.00
2023-02-23T05:27:46.771Z,0.00
2023-02-23T05:28:46.448Z,0.00
2023-02-23T05:29:46.399Z,0.00
2023-02-23T05:30:46.485Z,0.00
2023-02-23T05:31:46.485Z,0.00
2023-02-23T05:32:46.462Z,0.00
2023-02-23T05:33:46.466Z,0.00
2023-02-23T05:34:46.431Z,0.00
2023-02-23T05:35:46.471Z,0.00
2023-02-23T05:36:46.459Z,0.00
2023-02-23T05:37:46.575Z,0.00
2023-02-23T05:38:46.438Z,0.00
2023-02-23T05:39:46.528Z,0.00
2023-02-23T05:40:46.459Z,0.00
2023-02-23T05:41:46.522Z,0.00
2023-02-23T05:42:46.558Z,0.00
2023-02-23T05:43:46.519Z,0.00
2023-02-23T05:44:46.429Z,0.00
2023-02-23T05:45:46.459Z,0.00
2023-02-23T05:46:47.047Z,0.00
2023-02-23T05:47:46.188Z,0.00
2023-02-23T05:48:46.458Z,0.00
2023-02-23T05:49:46.231Z,0.00
2023-02-23T05:50:46.166Z,0.00
2023-02-23T05:51:46.133Z,0.00
2023-02-23T05:52:46.158Z,0.00
2023-02-23T05:53:46.140Z,0.00
2023-02-23T05:54:46.147Z,0.00
2023-02-23T05:55:46.091Z,0.00
2023-02-23T05:56:46.137Z,0.00
2023-02-23T05:57:46.088Z,0.00
2023-02-23T05:58:46.069Z,0.00
2023-02-23T05:59:46.051Z,0.00
2023-02-23T06:00:46.052Z,0.00
2023-02-23T06:01:46.028Z,0.00
2023-02-23T06:02:46.063Z,0.00
2023-02-23T06:03:46.064Z,0.00
2023-02-23T06:04:46.095Z,0.00
2023-02-23T06:05:45.982Z,0.00
2023-02-23T06:06:45.982Z,0.00
2023-02-23T06:07:45.983Z,0.00
2023-02-23T06:08:45.949Z,0.00
2023-02-23T06:09:45.929Z,0.00
2023-02-23T06:10:45.974Z,0.00
2023-02-23T06:11:46.231Z,0.00
2023-02-23T06:12:45.914Z,0.00
2023-02-23T06:13:45.885Z,0.00
2023-02-23T06:14:45.902Z,0.00
2023-02-23T06:15:45.889Z,0.00
2023-02-23T06:16:45.901Z,0.00
2023-02-23T06:17:45.852Z,0.00
2023-02-23T06:18:45.840Z,0.00
2023-02-23T06:19:45.811Z,0.00
2023-02-23T06:20:45.846Z,0.00
2023-02-23T06:21:45.824Z,4.00
2023-02-23T06:22:45.810Z,4.00
2023-02-23T06:23:45.824Z,4.00
2023-02-23T06:24:45.775Z,4.00
2023-02-23T06:25:45.750Z,0.00
2023-02-23T06:26:45.771Z,4.00
2023-02-23T06:27:45.774Z,4.00
2023-02-23T06:28:45.722Z,4.00
2023-02-23T06:29:45.702Z,8.00
2023-02-23T06:30:45.739Z,4.00
2023-02-23T06:31:45.754Z,8.00
2023-02-23T06:32:45.682Z,4.00
2023-02-23T06:33:45.682Z,4.00
2023-02-23T06:34:45.671Z,8.00
2023-02-23T06:35:45.643Z,8.00
2023-02-23T06:36:45.676Z,8.00
2023-02-23T06:37:45.628Z,8.00
2023-02-23T06:38:45.724Z,12.00
2023-02-23T06:39:45.601Z,8.00
2023-02-23T06:40:45.622Z,8.00
2023-02-23T06:41:45.570Z,12.00
2023-02-23T06:42:45.675Z,8.00
2023-02-23T06:43:45.574Z,12.00
2023-02-23T06:44:45.551Z,8.00
2023-02-23T06:45:45.606Z,12.00
2023-02-23T06:46:45.621Z,12.00
2023-02-23T06:47:45.668Z,12.00
2023-02-23T06:48:45.540Z,16.00
2023-02-23T06:49:45.554Z,20.00
2023-02-23T06:50:45.624Z,20.00
2023-02-23T06:51:45.623Z,16.00
2023-02-23T06:52:45.685Z,20.00
2023-02-23T06:53:45.643Z,20.00
2023-02-23T06:54:45.762Z,24.00
2023-02-23T06:55:45.663Z,24.00
2023-02-23T06:56:45.691Z,24.00
2023-02-23T06:57:45.724Z,28.00
2023-02-23T06:58:45.687Z,28.00
2023-02-23T06:59:45.413Z,28.00
2023-02-23T07:00:45.619Z,36.00
2023-02-23T07:01:45.541Z,36.00
2023-02-23T07:02:45.346Z,32.00
2023-02-23T07:03:45.344Z,32.00
2023-02-23T07:04:45.322Z,36.00
2023-02-23T07:05:45.304Z,36.00
2023-02-23T07:06:45.309Z,40.00
2023-02-23T07:07:45.275Z,44.00
2023-02-23T07:08:45.261Z,48.00
2023-02-23T07:09:45.290Z,48.00
2023-02-23T07:10:45.240Z,48.00
2023-02-23T07:11:45.742Z,48.00
2023-02-23T07:12:45.219Z,44.00
2023-02-23T07:13:45.251Z,48.00
2023-02-23T07:14:45.206Z,44.00
2023-02-23T07:15:45.188Z,44.00
2023-02-23T07:16:45.178Z,52.00
2023-02-23T07:17:45.161Z,52.00
2023-02-23T07:18:45.173Z,56.00
2023-02-23T07:19:45.146Z,56.00
2023-02-23T07:20:45.144Z,60.00
2023-02-23T07:21:45.106Z,64.00
2023-02-23T07:22:45.168Z,64.00
2023-02-23T07:23:45.119Z,68.00
2023-02-23T07:24:45.090Z,64.00
2023-02-23T07:25:45.506Z,64.00
2023-02-23T07:26:45.070Z,68.00
2023-02-23T07:27:45.059Z,68.00
2023-02-23T07:28:45.059Z,68.00
2023-02-23T07:29:45.047Z,76.00
2023-02-23T07:30:45.077Z,88.00
2023-02-23T07:31:45.090Z,96.00
2023-02-23T07:32:45.078Z,108.00
2023-02-23T07:33:44.997Z,112.00
2023-02-23T07:34:44.982Z,120.00
2023-02-23T07:35:44.966Z,124.00
2023-02-23T07:36:44.948Z,128.00
2023-02-23T07:37:44.934Z,128.00
2023-02-23T07:38:44.932Z,128.00
2023-02-23T07:39:44.923Z,128.00
2023-02-23T07:40:44.946Z,132.00
2023-02-23T07:41:44.908Z,132.00
2023-02-23T07:42:44.894Z,136.00
2023-02-23T07:43:44.875Z,132.00
2023-02-23T07:44:44.916Z,132.00
2023-02-23T07:45:46.564Z,136.00
2023-02-23T07:46:44.876Z,136.00
2023-02-23T07:47:44.844Z,140.00
2023-02-23T07:48:44.850Z,144.00
2023-02-23T07:49:44.800Z,144.00
2023-02-23T07:50:44.798Z,148.00
2023-02-23T07:51:44.778Z,144.00
2023-02-23T07:52:44.820Z,136.00
2023-02-23T07:53:44.761Z,132.00
2023-02-23T07:54:44.759Z,132.00
2023-02-23T07:55:44.746Z,124.00
2023-02-23T07:56:44.736Z,124.00
2023-02-23T07:57:44.744Z,128.00
2023-02-23T07:58:44.715Z,132.00
2023-02-23T07:59:44.711Z,132.00
2023-02-23T08:00:44.723Z,136.00
2023-02-23T08:01:44.697Z,144.00
2023-02-23T08:02:44.707Z,152.00
2023-02-23T08:03:44.654Z,160.00
2023-02-23T08:04:44.669Z,160.00
2023-02-23T08:05:44.648Z,152.00
2023-02-23T08:06:44.631Z,152.00
2023-02-23T08:07:44.606Z,152.00
2023-02-23T08:08:44.622Z,156.00
2023-02-23T08:09:44.569Z,156.00
2023-02-23T08:10:44.607Z,152.00
2023-02-23T08:11:44.560Z,144.00
2023-02-23T08:12:44.596Z,140.00
2023-02-23T08:13:44.541Z,144.00
2023-02-23T08:14:44.530Z,152.00
2023-02-23T08:15:44.522Z,148.00
2023-02-23T08:16:44.549Z,144.00
2023-02-23T08:17:44.505Z,144.00
2023-02-23T08:18:44.492Z,148.00
2023-02-23T08:19:44.461Z,156.00
2023-02-23T08:20:44.459Z,152.00
2023-02-23T08:21:44.448Z,152.00
2023-02-23T08:22:49.644Z,160.00
2023-02-23T08:23:45.418Z,168.00
2023-02-23T08:24:44.418Z,176.00
2023-02-23T08:25:44.475Z,184.00
2023-02-23T08:26:44.394Z,192.00
2023-02-23T08:27:44.430Z,188.00
2023-02-23T08:28:44.379Z,168.00
2023-02-23T08:29:44.346Z,152.00
2023-02-23T08:30:44.425Z,144.00
2023-02-23T08:31:44.602Z,140.00
2023-02-23T08:32:44.331Z,136.00
2023-02-23T08:33:44.327Z,144.00
2023-02-23T08:34:44.301Z,160.00
2023-02-23T08:35:44.277Z,160.00
2023-02-23T08:36:45.755Z,164.00
2023-02-23T08:37:44.258Z,172.00
2023-02-23T08:38:44.262Z,164.00
2023-02-23T08:39:44.250Z,168.00
2023-02-23T08:40:44.236Z,176.00
2023-02-23T08:41:44.208Z,188.00
2023-02-23T08:42:44.234Z,188.00
2023-02-23T08:43:44.264Z,192.00
2023-02-23T08:44:44.178Z,192.00
2023-02-23T08:45:44.187Z,196.00
2023-02-23T08:46:44.389Z,196.00
2023-02-23T08:47:44.149Z,196.00
2023-02-23T08:48:44.176Z,196.00
2023-02-23T08:49:44.125Z,192.00
2023-02-23T08:50:44.132Z,192.00
2023-02-23T08:51:44.096Z,204.00
2023-02-23T08:52:44.091Z,216.00
2023-02-23T08:53:44.116Z,216.00
2023-02-23T08:54:44.090Z,220.00
2023-02-23T08:55:44.627Z,232.00
2023-02-23T08:56:44.046Z,228.00
2023-02-23T08:57:44.028Z,220.00
2023-02-23T08:58:44.063Z,224.00
2023-02-23T08:59:44.007Z,228.00
2023-02-23T09:00:44.010Z,220.00
2023-02-23T09:01:44.015Z,228.00
2023-02-23T09:02:43.986Z,236.00
2023-02-23T09:03:44.107Z,232.00
2023-02-23T09:04:44.005Z,212.00
2023-02-23T09:05:44.029Z,208.00
2023-02-23T09:06:44.025Z,208.00
2023-02-23T09:07:44.026Z,228.00
2023-02-23T09:08:43.999Z,240.00
2023-02-23T09:09:43.976Z,256.00
2023-02-23T09:10:44.040Z,252.00
2023-02-23T09:11:44.026Z,256.00
2023-02-23T09:12:43.932Z,276.00
2023-02-23T09:13:44.128Z,292.00
2023-02-23T09:14:44.025Z,308.00
2023-02-23T09:15:44.130Z,308.00
2023-02-23T09:16:44.006Z,320.00
2023-02-23T09:17:43.815Z,332.00
2023-02-23T09:18:44.025Z,312.00
2023-02-23T09:19:43.891Z,300.00
2023-02-23T09:20:43.955Z,304.00
2023-02-23T09:21:43.837Z,312.00
2023-02-23T09:22:43.791Z,308.00
2023-02-23T09:23:43.766Z,320.00
2023-02-23T09:24:43.758Z,320.00
2023-02-23T09:25:43.708Z,344.00
2023-02-23T09:26:45.837Z,364.00
2023-02-23T09:27:44.158Z,392.00
2023-02-23T09:28:43.687Z,420.00
2023-02-23T09:29:43.666Z,444.00
2023-02-23T09:30:43.720Z,444.00
2023-02-23T09:31:43.816Z,448.00
2023-02-23T09:32:43.717Z,452.00
2023-02-23T09:33:43.629Z,456.00
2023-02-23T09:34:43.606Z,436.00
2023-02-23T09:35:43.607Z,436.00
2023-02-23T09:36:43.600Z,444.00
2023-02-23T09:37:43.587Z,440.00
2023-02-23T09:38:43.582Z,432.00
2023-02-23T09:39:43.581Z,432.00
2023-02-23T09:40:43.546Z,452.00
2023-02-23T09:41:43.540Z,468.00
2023-02-23T09:42:43.526Z,464.00
2023-02-23T09:43:43.534Z,444.00
2023-02-23T09:44:43.506Z,456.00
2023-02-23T09:45:43.524Z,476.00
2023-02-23T09:46:43.462Z,492.00
2023-02-23T09:47:43.474Z,496.00
2023-02-23T09:48:43.466Z,488.00
2023-02-23T09:49:43.449Z,476.00
2023-02-23T09:50:43.440Z,452.00
2023-02-23T09:51:43.427Z,436.00
2023-02-23T09:52:43.440Z,436.00
2023-02-23T09:53:43.907Z,448.00
2023-02-23T09:54:43.394Z,432.00
2023-02-23T09:55:43.409Z,436.00
2023-02-23T09:56:43.368Z,452.00
2023-02-23T09:57:43.376Z,448.00
2023-02-23T09:58:43.366Z,436.00
2023-02-23T09:59:43.340Z,436.00
2023-02-23T10:00:43.318Z,428.00
2023-02-23T10:01:43.394Z,408.00
2023-02-23T10:02:43.324Z,400.00
2023-02-23T10:03:43.294Z,396.00
2023-02-23T10:04:43.301Z,372.00
2023-02-23T10:05:43.271Z,340.00
2023-02-23T10:06:43.255Z,332.00
2023-02-23T10:07:43.304Z,336.00
2023-02-23T10:08:43.252Z,328.00
2023-02-23T10:09:43.232Z,316.00
2023-02-23T10:10:43.212Z,320.00
2023-02-23T10:11:43.213Z,344.00
2023-02-23T10:12:43.196Z,368.00
2023-02-23T10:13:43.185Z,376.00
2023-02-23T10:14:43.173Z,384.00
2023-02-23T10:15:43.173Z,380.00
2023-02-23T10:16:43.150Z,376.00
2023-02-23T10:17:43.167Z,380.00
2023-02-23T10:18:46.784Z,428.00
2023-02-23T10:19:43.114Z,448.00
2023-02-23T10:20:43.108Z,452.00
2023-02-23T10:21:43.103Z,444.00
2023-02-23T10:22:43.086Z,432.00
2023-02-23T10:23:43.085Z,400.00
2023-02-23T10:24:43.100Z,368.00
2023-02-23T10:25:43.046Z,332.00
2023-02-23T10:26:43.039Z,320.00
2023-02-23T10:27:43.035Z,332.00
2023-02-23T10:28:43.085Z,324.00
2023-02-23T10:29:43.021Z,308.00
2023-02-23T10:30:43.026Z,288.00
2023-02-23T10:31:43.065Z,280.00
2023-02-23T10:32:42.992Z,296.00
2023-02-23T10:33:43.269Z,312.00
2023-02-23T10:34:42.946Z,304.00
2023-02-23T10:35:42.928Z,292.00
2023-02-23T10:36:42.913Z,316.00
2023-02-23T10:37:42.914Z,340.00
2023-02-23T10:38:42.951Z,352.00
2023-02-23T10:39:42.917Z,352.00
2023-02-23T10:40:42.867Z,360.00
2023-02-23T10:41:42.869Z,364.00
2023-02-23T10:42:42.854Z,368.00
2023-02-23T10:43:42.851Z,368.00
2023-02-23T10:44:42.844Z,368.00
2023-02-23T10:45:42.827Z,392.00
2023-02-23T10:46:42.869Z,416.00
2023-02-23T10:47:42.815Z,452.00
2023-02-23T10:48:42.810Z,492.00
2023-02-23T10:49:42.804Z,512.00
2023-02-23T10:50:42.758Z,528.00
2023-02-23T10:51:42.776Z,548.00
2023-02-23T10:52:42.753Z,552.00
2023-02-23T10:53:42.737Z,504.00
2023-02-23T10:54:42.725Z,504.00
2023-02-23T10:55:42.705Z,536.00
2023-02-23T10:56:42.745Z,536.00
2023-02-23T10:57:42.709Z,520.00
2023-02-23T10:58:42.671Z,540.00
2023-02-23T10:59:42.674Z,564.00
2023-02-23T11:00:42.662Z,620.00
2023-02-23T11:01:55.430Z,704.00
2023-02-23T11:02:43.948Z,756.00
2023-02-23T11:03:43.211Z,800.00
2023-02-23T11:04:42.640Z,836.00
2023-02-23T11:05:42.631Z,856.00
2023-02-23T11:06:42.580Z,880.00
2023-02-23T11:07:42.582Z,912.00
2023-02-23T11:08:42.555Z,976.00
2023-02-23T11:09:47.476Z,988.00
2023-02-23T11:10:43.549Z,972.00
2023-02-23T11:11:42.526Z,904.00
2023-02-23T11:12:42.497Z,812.00
2023-02-23T11:13:42.490Z,728.00
2023-02-23T11:14:42.712Z,660.00
2023-02-23T11:15:50.325Z,632.00
2023-02-23T11:16:43.528Z,604.00
2023-02-23T11:17:42.455Z,604.00
2023-02-23T11:18:42.447Z,604.00
2023-02-23T11:19:42.430Z,600.00
2023-02-23T11:20:43.413Z,608.00
2023-02-23T11:21:42.431Z,636.00
2023-02-23T11:22:42.394Z,668.00
2023-02-23T11:23:42.423Z,656.00
2023-02-23T11:24:42.371Z,592.00
2023-02-23T11:25:42.364Z,596.00
2023-02-23T11:26:42.437Z,596.00
2023-02-23T11:27:42.374Z,556.00
2023-02-23T11:28:42.358Z,580.00
2023-02-23T11:29:42.327Z,588.00
2023-02-23T11:30:42.346Z,588.00
2023-02-23T11:31:42.357Z,560.00
2023-02-23T11:32:42.363Z,528.00
2023-02-23T11:33:42.270Z,508.00
2023-02-23T11:34:42.278Z,520.00
2023-02-23T11:35:42.253Z,512.00
2023-02-23T11:36:42.241Z,460.00
2023-02-23T11:37:42.220Z,424.00
2023-02-23T11:38:42.209Z,428.00
2023-02-23T11:39:42.221Z,428.00
2023-02-23T11:40:42.202Z,408.00
2023-02-23T11:41:42.194Z,404.00
2023-02-23T11:42:42.193Z,416.00
2023-02-23T11:43:42.160Z,456.00
2023-02-23T11:44:42.170Z,468.00
2023-02-23T11:45:43.773Z,468.00
2023-02-23T11:46:42.234Z,480.00
2023-02-23T11:47:42.120Z,492.00
2023-02-23T11:48:42.093Z,532.00
2023-02-23T11:49:42.114Z,588.00
2023-02-23T11:50:42.075Z,632.00
2023-02-23T11:51:42.063Z,632.00
2023-02-23T11:52:42.049Z,592.00
2023-02-23T11:53:42.053Z,556.00
2023-02-23T11:54:42.024Z,520.00
2023-02-23T11:55:42.026Z,480.00
2023-02-23T11:56:42.003Z,432.00
2023-02-23T11:57:41.995Z,432.00
2023-02-23T11:58:42.005Z,468.00
2023-02-23T11:59:42.025Z,464.00
2023-02-23T12:00:41.970Z,396.00
2023-02-23T12:01:41.969Z,336.00
2023-02-23T12:02:41.959Z,268.00
2023-02-23T12:03:41.945Z,216.00
2023-02-23T12:04:41.930Z,192.00
2023-02-23T12:05:41.970Z,180.00
2023-02-23T12:06:41.997Z,172.00
2023-02-23T12:07:42.012Z,172.00
2023-02-23T12:08:41.905Z,172.00
2023-02-23T12:09:41.867Z,168.00
2023-02-23T12:10:41.987Z,176.00
2023-02-23T12:11:41.851Z,180.00
2023-02-23T12:12:41.822Z,188.00
2023-02-23T12:13:41.873Z,192.00
2023-02-23T12:14:41.818Z,200.00
2023-02-23T12:15:41.809Z,200.00
2023-02-23T12:16:41.793Z,196.00
2023-02-23T12:17:41.796Z,184.00
2023-02-23T12:18:41.815Z,172.00
2023-02-23T12:19:41.799Z,160.00
2023-02-23T12:20:41.767Z,156.00
2023-02-23T12:21:41.770Z,168.00
2023-02-23T12:22:41.732Z,212.00
2023-02-23T12:23:41.755Z,232.00
2023-02-23T12:24:41.788Z,252.00
2023-02-23T12:25:41.692Z,264.00
2023-02-23T12:26:41.671Z,276.00
2023-02-23T12:27:41.676Z,288.00
2023-02-23T12:28:41.653Z,300.00
2023-02-23T12:29:41.679Z,320.00
2023-02-23T12:30:41.637Z,340.00
2023-02-23T12:31:41.644Z,348.00
2023-02-23T12:32:41.655Z,368.00
2023-02-23T12:33:41.597Z,372.00
2023-02-23T12:34:41.585Z,356.00
2023-02-23T12:35:41.573Z,324.00
2023-02-23T12:36:41.555Z,300.00
2023-02-23T12:37:41.580Z,292.00
2023-02-23T12:38:41.528Z,292.00
2023-02-23T12:39:41.535Z,296.00
2023-02-23T12:40:41.527Z,308.00
2023-02-23T12:41:41.515Z,328.00
2023-02-23T12:42:41.486Z,348.00
2023-02-23T12:43:41.476Z,384.00
2023-02-23T12:44:41.481Z,436.00
2023-02-23T12:45:41.480Z,480.00
2023-02-23T12:46:41.454Z,488.00
2023-02-23T12:47:41.434Z,440.00
2023-02-23T12:48:41.427Z,400.00
2023-02-23T12:49:41.417Z,376.00
2023-02-23T12:50:41.395Z,368.00
2023-02-23T12:51:41.388Z,348.00
2023-02-23T12:52:41.388Z,316.00
2023-02-23T12:53:41.386Z,300.00
2023-02-23T12:54:41.369Z,288.00
2023-02-23T12:55:41.347Z,240.00